createdAt,value
2022-11-04T00:01:47.544Z,54.32
2022-11-04T00:04:15.388Z,54.36
2022-11-04T00:06:42.102Z,54.11
2022-11-04T00:09:11.573Z,54.49
2022-11-04T00:11:56.540Z,54.45
2022-11-04T00:14:23.138Z,54.63
2022-11-04T00:17:08.557Z,54.24
2022-11-04T00:19:53.695Z,53.83
2022-11-04T00:22:39.074Z,53.98
2022-11-04T00:25:24.387Z,54.07
2022-11-04T00:28:09.903Z,54.05
2022-11-04T00:30:36.791Z,53.83
2022-11-04T00:33:21.901Z,53.88
2022-11-04T00:35:49.903Z,53.78
2022-11-04T00:38:17.294Z,53.88
2022-11-04T00:40:43.955Z,53.37
2022-11-04T00:43:10.501Z,53.68
2022-11-04T00:45:37.137Z,53.65
2022-11-04T00:48:03.834Z,53.32
2022-11-04T00:50:30.382Z,53.39
2022-11-04T00:53:00.810Z,53.21
2022-11-04T00:55:27.894Z,53.41
2022-11-04T00:57:54.916Z,53.49
2022-11-04T01:00:21.838Z,53.50
2022-11-04T01:02:48.397Z,53.21
2022-11-04T01:05:14.955Z,53.27
2022-11-04T01:07:43.822Z,53.01
2022-11-04T01:10:11.191Z,53.05
2022-11-04T01:12:37.731Z,53.06
2022-11-04T01:15:04.588Z,53.23
2022-11-04T01:17:31.106Z,53.10
2022-11-04T01:19:57.673Z,52.83
2022-11-04T01:22:24.238Z,52.90
2022-11-04T01:24:50.813Z,52.78
2022-11-04T01:27:17.330Z,53.28
2022-11-04T01:29:43.935Z,53.10
2022-11-04T01:32:10.509Z,53.04
2022-11-04T01:34:42.409Z,52.99
2022-11-04T01:37:10.407Z,52.74
2022-11-04T01:39:36.950Z,52.92
2022-11-04T01:44:54.856Z,52.79
2022-11-04T01:47:30.673Z,52.97
2022-11-04T01:50:25.118Z,52.72
2022-11-04T01:53:08.150Z,52.78
2022-11-04T01:55:43.730Z,52.85
2022-11-04T01:58:13.065Z,52.62
2022-11-04T02:00:40.301Z,52.92
2022-11-04T02:03:11.551Z,52.93
2022-11-04T02:05:38.866Z,52.58
2022-11-04T02:08:07.070Z,52.89
2022-11-04T02:10:33.651Z,52.69
2022-11-04T02:13:03.587Z,52.80
2022-11-04T02:16:06.323Z,52.51
2022-11-04T02:18:44.594Z,52.78
2022-11-04T02:21:38.594Z,52.63
2022-11-04T02:24:23.093Z,52.32
2022-11-04T02:27:01.430Z,52.57
2022-11-04T02:29:38.816Z,52.57
2022-11-04T02:32:11.316Z,52.77
2022-11-04T02:34:58.929Z,52.67
2022-11-04T02:37:36.440Z,52.33
2022-11-04T02:40:12.096Z,52.65
2022-11-04T02:43:01.493Z,52.57
2022-11-04T02:45:38.558Z,52.79
2022-11-04T02:48:22.727Z,52.47
2022-11-04T02:50:56.607Z,52.51
2022-11-04T02:53:41.422Z,52.27
2022-11-04T02:56:08.543Z,52.13
2022-11-04T02:58:41.899Z,52.28
2022-11-04T03:01:13.173Z,52.29
2022-11-04T03:03:43.417Z,52.42
2022-11-04T03:06:11.628Z,52.26
2022-11-04T03:08:41.867Z,52.10
2022-11-04T03:11:12.291Z,52.49
2022-11-04T03:14:01.168Z,52.54
2022-11-04T03:16:44.561Z,52.33
2022-11-04T03:19:26.021Z,52.33
2022-11-04T03:22:01.189Z,52.51
2022-11-04T03:24:28.009Z,52.27
2022-11-04T03:27:14.775Z,52.39
2022-11-04T03:29:58.221Z,52.66
2022-11-04T03:32:25.809Z,52.28
2022-11-04T03:34:52.475Z,52.14
2022-11-04T03:37:19.028Z,52.32
2022-11-04T03:39:45.775Z,52.18
2022-11-04T03:42:22.439Z,52.58
2022-11-04T03:44:54.193Z,52.43
2022-11-04T03:47:25.925Z,52.28
2022-11-04T03:49:59.404Z,52.46
2022-11-04T03:52:25.773Z,52.39
2022-11-04T03:54:52.324Z,52.36
2022-11-04T03:57:21.991Z,52.27
2022-11-04T04:00:11.676Z,52.07
2022-11-04T04:03:02.718Z,52.30
2022-11-04T04:05:30.054Z,52.22
2022-11-04T04:08:25.871Z,51.86
2022-11-04T04:11:11.042Z,52.12
2022-11-04T04:13:41.719Z,52.15
2022-11-04T04:16:31.093Z,51.96
2022-11-04T04:19:24.185Z,52.07
2022-11-04T04:21:56.197Z,52.02
2022-11-04T04:24:44.903Z,52.01
2022-11-04T04:27:30.419Z,52.08
2022-11-04T04:29:58.143Z,52.00
2022-11-04T04:32:26.562Z,51.88
2022-11-04T04:35:13.240Z,52.09
2022-11-04T04:37:41.592Z,51.82
2022-11-04T04:40:29.417Z,52.15
2022-11-04T04:43:14.492Z,51.95
2022-11-04T04:45:42.802Z,51.56
2022-11-04T04:48:11.981Z,51.76
2022-11-04T04:50:41.436Z,51.99
2022-11-04T04:53:08.194Z,51.90
2022-11-04T04:55:40.513Z,51.67
2022-11-04T04:58:09.116Z,51.97
2022-11-04T05:00:35.753Z,51.50
2022-11-04T05:03:02.319Z,51.81
2022-11-04T05:05:28.908Z,51.98
2022-11-04T05:07:55.454Z,51.93
2022-11-04T05:10:22.018Z,51.75
2022-11-04T05:13:07.375Z,51.41
2022-11-04T05:15:34.539Z,51.33
2022-11-04T05:18:03.506Z,51.70
2022-11-04T05:20:30.504Z,51.32
2022-11-04T05:22:57.138Z,51.76
2022-11-04T05:25:23.686Z,51.56
2022-11-04T05:27:50.287Z,51.58
2022-11-04T05:30:16.988Z,51.26
2022-11-04T05:32:43.611Z,51.50
2022-11-04T05:35:10.157Z,51.22
2022-11-04T05:37:36.741Z,51.38
2022-11-04T05:40:03.402Z,51.65
2022-11-04T05:42:31.395Z,51.34
2022-11-04T05:44:57.927Z,51.60
2022-11-04T05:47:24.489Z,51.47
2022-11-04T05:49:51.047Z,51.42
2022-11-04T05:52:17.586Z,51.47
2022-11-04T05:54:44.130Z,51.41
2022-11-04T05:57:11.125Z,51.46
2022-11-04T05:59:37.646Z,51.46
2022-11-04T06:02:04.371Z,51.12
2022-11-04T06:04:30.996Z,51.21
2022-11-04T06:06:57.574Z,51.14
2022-11-04T06:09:38.938Z,51.28
2022-11-04T06:12:10.921Z,51.46
2022-11-04T06:14:37.469Z,51.25
2022-11-04T06:17:04.406Z,51.21
2022-11-04T06:19:31.003Z,51.00
2022-11-04T06:21:57.664Z,51.47
2022-11-04T06:24:24.216Z,51.24
2022-11-04T06:26:50.872Z,51.53
2022-11-04T06:29:17.524Z,51.58
2022-11-04T06:31:44.108Z,51.07
2022-11-04T06:34:10.691Z,51.08
2022-11-04T06:36:37.296Z,51.42
2022-11-04T06:39:05.326Z,51.15
2022-11-04T06:41:32.175Z,51.47
2022-11-04T06:43:58.772Z,51.30
2022-11-04T06:46:40.891Z,51.46
2022-11-04T06:49:11.735Z,51.41
2022-11-04T06:51:38.576Z,51.50
2022-11-04T06:54:05.175Z,51.53
2022-11-04T06:56:31.731Z,51.41
2022-11-04T06:58:58.298Z,51.35
2022-11-04T07:01:28.739Z,51.62
2022-11-04T07:03:57.510Z,51.66
2022-11-04T07:06:24.907Z,51.41
2022-11-04T07:08:52.467Z,51.37
2022-11-04T07:11:21.289Z,51.69
2022-11-04T07:13:49.043Z,51.72
2022-11-04T07:16:15.788Z,51.55
2022-11-04T07:18:42.447Z,51.60
2022-11-04T07:21:10.426Z,51.54
2022-11-04T07:23:37.370Z,51.46
2022-11-04T07:26:05.732Z,51.53
2022-11-04T07:28:33.028Z,51.63
2022-11-04T07:31:01.026Z,51.75
2022-11-04T07:33:27.589Z,51.75
2022-11-04T07:35:58.104Z,55.41
2022-11-04T07:38:25.442Z,56.00
2022-11-04T07:40:51.988Z,56.01
2022-11-04T07:43:18.547Z,56.50
2022-11-04T07:45:45.404Z,56.58
2022-11-04T07:48:12.533Z,56.00
2022-11-04T07:50:40.444Z,56.13
2022-11-04T07:53:07.388Z,56.30
2022-11-04T07:55:37.782Z,56.00
2022-11-04T07:58:09.646Z,56.31
2022-11-04T08:00:36.192Z,56.47
2022-11-04T08:03:03.026Z,56.09
2022-11-04T08:05:29.662Z,56.22
2022-11-04T08:07:57.678Z,56.17
2022-11-04T08:10:24.284Z,56.14
2022-11-04T08:12:51.698Z,55.51
2022-11-04T08:15:18.354Z,55.84
2022-11-04T08:17:44.924Z,55.88
2022-11-04T08:20:12.436Z,55.76
2022-11-04T08:22:39.200Z,55.52
2022-11-04T08:25:06.304Z,55.61
2022-11-04T08:27:34.131Z,55.51
2022-11-04T08:30:00.682Z,55.54
2022-11-04T08:32:27.227Z,55.60
2022-11-04T08:34:53.764Z,55.35
2022-11-04T08:37:20.394Z,54.97
2022-11-04T08:39:46.951Z,54.70
2022-11-04T08:42:13.622Z,54.78
2022-11-04T08:44:40.248Z,54.54
2022-11-04T08:47:06.845Z,54.64
2022-11-04T08:49:38.078Z,54.35
2022-11-04T08:52:04.904Z,54.36
2022-11-04T08:54:31.453Z,54.38
2022-11-04T08:56:58.620Z,54.36
2022-11-04T08:59:25.270Z,54.76
2022-11-04T09:01:51.930Z,54.78
2022-11-04T09:04:19.799Z,54.70
2022-11-04T09:06:47.138Z,54.70
2022-11-04T09:09:15.579Z,53.97
2022-11-04T09:11:43.675Z,54.13
2022-11-04T09:14:11.653Z,54.35
2022-11-04T09:16:39.828Z,54.46
2022-11-04T09:19:07.144Z,54.49
2022-11-04T09:21:33.693Z,54.32
2022-11-04T09:24:00.390Z,54.63
2022-11-04T09:26:27.058Z,54.22
2022-11-04T09:28:57.908Z,54.20
2022-11-04T09:31:25.324Z,54.19
2022-11-04T09:33:52.026Z,54.36
2022-11-04T09:36:18.641Z,54.51
2022-11-04T09:38:45.547Z,54.46
2022-11-04T09:41:36.880Z,54.32
2022-11-04T09:44:26.248Z,54.11
2022-11-04T09:46:56.789Z,54.47
2022-11-04T09:49:24.532Z,54.26
2022-11-04T09:51:54.852Z,54.60
2022-11-04T09:54:22.974Z,53.98
2022-11-04T09:56:51.525Z,54.03
2022-11-04T09:59:21.829Z,53.74
2022-11-04T10:01:52.582Z,53.83
2022-11-04T10:04:38.905Z,53.60
2022-11-04T10:07:28.415Z,53.63
2022-11-04T10:10:42.734Z,52.94
2022-11-04T10:13:31.003Z,52.92
2022-11-04T10:16:14.793Z,52.94
2022-11-04T10:18:41.158Z,52.67
2022-11-04T10:21:22.838Z,52.74
2022-11-04T10:24:09.596Z,52.35
2022-11-04T10:26:48.073Z,52.50
2022-11-04T10:29:17.661Z,52.38
2022-11-04T10:31:45.836Z,52.42
2022-11-04T10:34:21.653Z,52.36
2022-11-04T10:36:49.084Z,52.42
2022-11-04T10:39:28.670Z,52.26
2022-11-04T10:41:55.309Z,52.63
2022-11-04T10:44:27.529Z,52.64
2022-11-04T10:47:00.462Z,52.65
2022-11-04T10:50:21.947Z,52.65
2022-11-04T10:52:38.939Z,52.69
2022-11-04T10:55:43.066Z,52.84
2022-11-04T10:58:17.628Z,52.72
2022-11-04T11:00:44.290Z,52.66
2022-11-04T11:03:34.317Z,52.67
2022-11-04T11:06:28.042Z,52.53
2022-11-04T11:08:57.854Z,52.55
2022-11-04T11:12:00.932Z,52.72
2022-11-04T11:14:33.039Z,52.92
2022-11-04T11:17:14.574Z,53.19
2022-11-04T11:19:50.859Z,52.74
2022-11-04T11:22:47.141Z,53.02
2022-11-04T11:25:13.699Z,52.88
2022-11-04T11:27:41.528Z,53.25
2022-11-04T11:30:19.734Z,54.01
2022-11-04T11:32:46.698Z,54.16
2022-11-04T11:35:16.970Z,53.90
2022-11-04T11:37:45.751Z,53.74
2022-11-04T11:40:32.699Z,53.00
2022-11-04T11:43:00.749Z,52.60
2022-11-04T11:45:27.936Z,53.18
2022-11-04T11:47:57.536Z,52.87
2022-11-04T11:50:29.924Z,52.75
2022-11-04T11:53:15.242Z,52.41
2022-11-04T11:55:50.237Z,52.61
2022-11-04T12:01:30.374Z,52.82
2022-11-04T12:10:18.393Z,52.38
2022-11-04T12:13:07.296Z,52.25
2022-11-04T12:16:01.013Z,52.62
2022-11-04T12:18:51.895Z,52.22
2022-11-04T12:21:27.050Z,52.00
2022-11-04T12:24:03.911Z,51.93
2022-11-04T12:26:47.522Z,51.91
2022-11-04T12:29:18.993Z,52.19
2022-11-04T12:32:12.741Z,52.29
2022-11-04T12:34:49.625Z,52.65
2022-11-04T12:37:54.397Z,52.14
2022-11-04T12:40:35.137Z,52.33
2022-11-04T12:43:17.926Z,52.53
2022-11-04T12:46:41.943Z,52.35
2022-11-04T12:49:23.385Z,52.32
2022-11-04T12:51:55.906Z,52.39
2022-11-04T12:54:38.342Z,52.22
2022-11-04T12:57:13.209Z,52.60
2022-11-04T13:00:28.945Z,52.52
2022-11-04T13:03:02.555Z,53.01
2022-11-04T13:05:42.393Z,53.26
2022-11-04T13:08:42.928Z,53.00
2022-11-04T13:11:22.610Z,53.52
2022-11-04T13:14:16.164Z,53.75
2022-11-04T13:16:45.803Z,53.44
2022-11-04T13:19:36.717Z,53.31
2022-11-04T13:22:09.953Z,53.48
2022-11-04T13:24:39.250Z,53.50
2022-11-04T13:27:19.087Z,53.65
2022-11-04T13:29:46.554Z,53.43
2022-11-04T13:32:42.335Z,53.66
2022-11-04T13:35:15.337Z,53.77
2022-11-04T13:37:50.279Z,53.61
2022-11-04T13:40:20.382Z,53.51
2022-11-04T13:43:35.406Z,53.25
2022-11-04T13:46:02.168Z,53.21
2022-11-04T13:48:33.245Z,52.91
2022-11-04T13:51:06.381Z,52.89
2022-11-04T13:53:57.970Z,52.66
2022-11-04T13:56:40.849Z,52.85
2022-11-04T13:59:29.920Z,52.67
2022-11-04T14:02:26.339Z,52.60
2022-11-04T14:04:53.007Z,52.74
2022-11-04T14:07:19.702Z,52.71
2022-11-04T14:09:54.845Z,52.44
2022-11-04T14:12:39.558Z,52.57
2022-11-04T14:15:12.229Z,52.64
2022-11-04T14:17:38.807Z,52.58
2022-11-04T14:20:06.145Z,52.78
2022-11-04T14:22:43.195Z,52.87
2022-11-04T14:25:27.775Z,52.67
2022-11-04T14:28:00.517Z,52.80
2022-11-04T14:30:45.093Z,52.55
2022-11-04T14:33:23.886Z,52.66
2022-11-04T14:35:55.037Z,52.82
2022-11-04T14:38:28.085Z,52.63
2022-11-04T14:41:21.701Z,52.84
2022-11-04T14:43:49.300Z,53.10
2022-11-04T14:46:22.192Z,53.16
2022-11-04T14:48:52.383Z,52.87
2022-11-04T14:51:23.484Z,53.34
2022-11-04T14:53:50.905Z,53.37
2022-11-04T14:56:24.231Z,52.95
2022-11-04T14:58:57.250Z,53.26
2022-11-04T15:02:08.399Z,53.20
2022-11-04T15:04:35.281Z,53.27
2022-11-04T15:07:04.005Z,53.12
2022-11-04T15:09:31.419Z,53.44
2022-11-04T15:12:25.406Z,53.17
2022-11-04T15:14:52.496Z,53.14
2022-11-04T15:17:21.037Z,53.21
2022-11-04T15:19:56.372Z,53.41
2022-11-04T15:22:23.302Z,53.69
2022-11-04T15:24:52.883Z,53.51
2022-11-04T15:27:25.959Z,53.47
2022-11-04T15:30:00.367Z,53.57
2022-11-04T15:32:27.512Z,53.35
2022-11-04T15:34:55.028Z,53.20
2022-11-04T15:37:23.611Z,53.25
2022-11-04T15:39:51.616Z,53.32
2022-11-04T15:42:42.970Z,53.16
2022-11-04T15:45:27.618Z,53.30
2022-11-04T15:48:26.202Z,53.30
2022-11-04T15:50:58.312Z,53.16
2022-11-04T15:53:24.879Z,53.44
2022-11-04T15:55:52.781Z,53.12
2022-11-04T15:58:19.595Z,53.11
2022-11-04T16:00:53.662Z,53.48
2022-11-04T16:03:22.711Z,53.26
2022-11-04T16:06:07.023Z,53.00
2022-11-04T16:08:34.059Z,53.11
2022-11-04T16:11:16.875Z,53.22
2022-11-04T16:13:44.366Z,53.34
2022-11-04T16:16:22.811Z,53.01
2022-11-04T16:18:51.862Z,53.25
2022-11-04T16:21:31.199Z,53.03
2022-11-04T16:24:04.436Z,53.17
2022-11-04T16:26:39.140Z,52.78
2022-11-04T16:29:32.883Z,53.01
2022-11-04T16:32:14.791Z,52.89
2022-11-04T16:34:41.357Z,52.97
2022-11-04T16:37:08.005Z,53.06
2022-11-04T16:39:34.540Z,53.11
2022-11-04T16:42:01.149Z,53.25
2022-11-04T16:44:27.758Z,52.86
2022-11-04T16:46:54.313Z,53.00
2022-11-04T16:49:24.838Z,53.08
2022-11-04T16:51:55.711Z,52.89
2022-11-04T16:54:23.022Z,52.97
2022-11-04T16:56:49.603Z,52.95
2022-11-04T16:59:16.187Z,53.10
2022-11-04T17:01:42.817Z,53.03
2022-11-04T17:04:09.695Z,52.97
2022-11-04T17:06:36.810Z,52.82
2022-11-04T17:09:04.319Z,53.14
2022-11-04T17:11:30.867Z,52.97
2022-11-04T17:13:57.420Z,53.28
2022-11-04T17:16:24.716Z,53.26
2022-11-04T17:18:51.371Z,52.86
2022-11-04T17:21:20.285Z,52.84
2022-11-04T17:23:46.866Z,53.06
2022-11-04T17:26:13.811Z,52.91
2022-11-04T17:28:40.359Z,52.98
2022-11-04T17:31:06.990Z,52.91
2022-11-04T17:33:33.690Z,53.12
2022-11-04T17:36:03.447Z,52.79
2022-11-04T17:38:33.938Z,53.16
2022-11-04T17:41:19.046Z,52.94
2022-11-04T17:44:00.639Z,53.03
2022-11-04T17:46:34.307Z,52.92
2022-11-04T17:49:02.780Z,53.21
2022-11-04T17:51:30.773Z,52.84
2022-11-04T17:53:57.328Z,53.06
2022-11-04T17:56:24.450Z,52.86
2022-11-04T17:58:51.605Z,53.08
2022-11-04T18:01:20.567Z,52.97
2022-11-04T18:03:47.338Z,53.07
2022-11-04T18:06:13.950Z,52.85
2022-11-04T18:08:40.561Z,52.82
2022-11-04T18:11:09.819Z,53.24
2022-11-04T18:13:36.749Z,52.92
2022-11-04T18:16:13.697Z,53.00
2022-11-04T18:18:40.787Z,53.15
2022-11-04T18:21:08.634Z,52.94
2022-11-04T18:23:35.196Z,53.03
2022-11-04T18:26:02.964Z,52.97
2022-11-04T18:28:29.591Z,53.17
2022-11-04T18:30:56.249Z,53.06
2022-11-04T18:33:22.868Z,53.05
2022-11-04T18:35:49.416Z,52.97
2022-11-04T18:38:16.004Z,52.75
2022-11-04T18:40:42.550Z,53.06
2022-11-04T18:43:09.493Z,52.87
2022-11-04T18:45:36.484Z,52.76
2022-11-04T18:48:03.413Z,52.58
2022-11-04T18:50:30.357Z,52.52
2022-11-04T18:52:56.963Z,52.66
2022-11-04T18:55:24.290Z,52.61
2022-11-04T18:57:55.258Z,52.71
2022-11-04T19:00:22.562Z,52.91
2022-11-04T19:02:49.192Z,52.68
2022-11-04T19:05:15.880Z,52.72
2022-11-04T19:07:42.535Z,52.80
2022-11-04T19:10:09.579Z,52.83
2022-11-04T19:12:54.705Z,52.87
2022-11-04T19:15:21.248Z,52.67
2022-11-04T19:17:47.775Z,52.81
2022-11-04T19:20:14.782Z,52.60
2022-11-04T19:22:41.349Z,52.65
2022-11-04T19:25:08.947Z,52.48
2022-11-04T19:27:35.960Z,52.47
2022-11-04T19:30:02.508Z,52.87
2022-11-04T19:32:29.035Z,52.31
2022-11-04T19:34:55.575Z,52.86
2022-11-04T19:37:22.114Z,52.74
2022-11-04T19:39:48.667Z,52.51
2022-11-04T19:42:34.083Z,52.58
2022-11-04T19:45:00.769Z,52.45
2022-11-04T19:47:27.434Z,52.70
2022-11-04T19:49:54.187Z,52.83
2022-11-04T19:52:21.481Z,52.65
2022-11-04T19:54:48.022Z,52.91
2022-11-04T19:57:14.627Z,52.95
2022-11-04T19:59:41.175Z,52.46
2022-11-04T20:02:08.003Z,52.88
2022-11-04T20:04:34.614Z,52.94
2022-11-04T20:07:01.252Z,53.06
2022-11-04T20:09:27.838Z,52.67
2022-11-04T20:12:12.596Z,52.54
2022-11-04T20:14:39.190Z,52.43
2022-11-04T20:17:06.877Z,52.82
2022-11-04T20:19:34.976Z,52.64
2022-11-04T20:22:01.708Z,52.67
2022-11-04T20:24:28.887Z,52.68
2022-11-04T20:26:55.425Z,52.47
2022-11-04T20:29:21.998Z,52.73
2022-11-04T20:31:48.597Z,52.35
2022-11-04T20:34:15.378Z,52.79
2022-11-04T20:36:42.006Z,52.86
2022-11-04T20:39:14.220Z,52.72
2022-11-04T20:41:41.047Z,52.58
2022-11-04T20:44:10.667Z,52.66
2022-11-04T20:46:37.588Z,52.54
2022-11-04T20:49:04.437Z,52.50
2022-11-04T20:51:33.662Z,52.65
2022-11-04T20:54:03.752Z,52.32
2022-11-04T20:56:35.427Z,52.75
2022-11-04T20:59:02.195Z,52.55
2022-11-04T21:01:31.377Z,52.61
2022-11-04T21:04:03.494Z,52.57
2022-11-04T21:06:30.980Z,52.75
2022-11-04T21:08:58.586Z,52.49
2022-11-04T21:11:31.479Z,52.66
2022-11-04T21:13:59.014Z,52.66
2022-11-04T21:16:28.268Z,52.52
2022-11-04T21:18:55.289Z,53.00
2022-11-04T21:21:21.894Z,53.08
2022-11-04T21:23:48.807Z,52.91
2022-11-04T21:26:25.923Z,52.47
2022-11-04T21:29:01.384Z,52.51
2022-11-04T21:31:29.191Z,52.64
2022-11-04T21:33:57.051Z,52.99
2022-11-04T21:36:23.629Z,52.74
2022-11-04T21:38:50.514Z,52.75
2022-11-04T21:41:23.152Z,52.71
2022-11-04T21:43:56.997Z,52.62
2022-11-04T21:46:24.280Z,52.34
2022-11-04T21:48:50.825Z,52.79
2022-11-04T21:51:22.617Z,52.61
2022-11-04T21:53:49.184Z,52.60
2022-11-04T21:56:21.452Z,52.36
2022-11-04T21:58:48.163Z,52.28
2022-11-04T22:01:20.027Z,52.45
2022-11-04T22:03:51.213Z,52.47
2022-11-04T22:06:17.803Z,52.28
2022-11-04T22:08:49.087Z,52.47
2022-11-04T22:11:18.497Z,52.57
2022-11-04T22:13:45.506Z,52.10
2022-11-04T22:16:15.156Z,52.20
2022-11-04T22:18:42.367Z,52.16
2022-11-04T22:21:13.902Z,52.34
2022-11-04T22:23:40.714Z,52.18
2022-11-04T22:26:10.647Z,52.09
2022-11-04T22:28:37.210Z,52.28
2022-11-04T22:31:10.627Z,52.08
2022-11-04T22:33:37.850Z,52.25
2022-11-04T22:36:05.746Z,52.10
2022-11-04T22:38:33.514Z,52.28
2022-11-04T22:41:00.964Z,52.20
2022-11-04T22:43:27.548Z,52.46
2022-11-04T22:45:55.521Z,52.27
2022-11-04T22:48:22.388Z,52.67
2022-11-04T22:50:57.096Z,52.70
2022-11-04T22:53:24.401Z,52.39
2022-11-04T22:55:51.758Z,52.22
2022-11-04T22:58:19.519Z,52.27
2022-11-04T23:00:46.773Z,52.22
2022-11-04T23:03:13.660Z,52.15
2022-11-04T23:05:40.575Z,52.39
2022-11-04T23:08:07.159Z,52.45
2022-11-04T23:10:52.590Z,52.54
2022-11-04T23:13:37.459Z,52.08
2022-11-04T23:16:22.581Z,52.34
2022-11-04T23:18:52.107Z,52.25
2022-11-04T23:21:39.154Z,52.40
2022-11-04T23:24:24.585Z,52.57
2022-11-04T23:26:51.231Z,52.36
2022-11-04T23:29:36.826Z,52.33
2022-11-04T23:32:03.911Z,52.35
2022-11-04T23:34:49.343Z,52.16
2022-11-04T23:37:15.914Z,52.25
2022-11-04T23:39:47.274Z,52.58
2022-11-04T23:42:16.667Z,52.22
2022-11-04T23:45:02.379Z,52.48
2022-11-04T23:47:47.575Z,52.82
2022-11-04T23:50:32.840Z,52.08
2022-11-04T23:53:18.378Z,52.40
2022-11-04T23:56:03.618Z,52.15
2022-11-04T23:58:48.512Z,52.07
